Time;durP1;ratioP1;P1;durP2;ratioP2;P2;SDS_P1;SDS_P2;PMS_P1;PMS_P2;Temp;Humidity;BMP_temperature;BMP_pressure;BME280_temperature;BME280_humidity;BME280_pressure;Samples;Min_cycle;Max_cycle;Signal;HPM_P1;HPM_P2
2021/11/17 02:26:22;;;;;;;45.33;28.12;;;;;;;6.04;86.29;100601.29;2809802;84;21087;-77
2021/11/17 02:30:58;;;;;;;52.13;31.45;;;;;;;5.79;86.56;100603.50;2810234;83;22593;-77
2021/11/17 02:35:31;;;;;;;60.33;36.73;;;;;;;5.63;86.82;100602.66;2809799;84;21126;-71
2021/11/17 02:40:01;;;;;;;55.25;33.25;;;;;;;5.45;87.09;100600.59;2809233;84;21663;-74
2021/11/17 02:44:41;;;;;;;50.55;34.15;;;;;;;5.32;87.77;100598.62;2809306;84;21048;-77
2021/11/17 02:49:08;;;;;;;59.15;35.73;;;;;;;5.25;87.99;100596.78;2809051;84;21086;-79
2021/11/17 02:53:32;;;;;;;49.77;31.97;;;;;;;5.17;88.01;100604.73;2809666;84;21062;-78
2021/11/17 02:58:05;;;;;;;50.92;31.97;;;;;;;5.14;88.30;100597.85;2809647;84;21050;-84
2021/11/17 03:02:28;;;;;;;47.20;30.30;;;;;;;5.09;88.55;100595.91;2809393;84;21106;-75
2021/11/17 03:06:57;;;;;;;42.80;28.35;;;;;;;5.10;88.60;100600.24;2807722;84;21004;-80
2021/11/17 03:11:14;;;;;;;35.92;26.25;;;;;;;5.08;88.92;100606.07;2799920;84;21091;-80
2021/11/17 03:15:33;;;;;;;40.30;28.95;;;;;;;5.07;89.08;100597.78;2801743;85;21099;-69
2021/11/17 03:20:03;;;;;;;50.15;33.85;;;;;;;4.99;89.05;100585.87;2802288;85;21060;-69
2021/11/17 03:24:34;;;;;;;55.25;35.63;;;;;;;5.05;89.06;100588.65;2802333;84;21067;-72
2021/11/17 03:29:00;;;;;;;57.58;36.35;;;;;;;5.05;89.15;100590.42;2800811;85;21061;-80
2021/11/17 03:33:25;;;;;;;58.68;31.65;;;;;;;4.98;89.37;100590.77;2802184;84;21035;-74
2021/11/17 03:38:18;;;;;;;44.55;30.57;;;;;;;5.00;89.71;100588.02;2801964;84;21023;-71
2021/11/17 03:42:49;;;;;;;48.48;34.33;;;;;;;4.98;89.87;100586.80;2801534;85;21074;-79
2021/11/17 03:47:28;;;;;;;52.25;34.65;;;;;;;5.06;89.56;100574.98;2767006;85;21015;-79
2021/11/17 03:52:03;;;;;;;50.38;33.00;;;;;;;5.11;89.33;100570.30;2800869;85;21043;-78
2021/11/17 03:56:22;;;;;;;44.23;29.45;;;;;;;5.26;89.63;100575.23;2760588;85;21051;-79
2021/11/17 04:01:00;;;;;;;42.33;31.30;;;;;;;5.33;89.12;100577.06;2788911;85;21113;-81
2021/11/17 04:05:27;;;;;;;41.70;30.35;;;;;;;5.35;88.89;100572.55;2789078;85;21032;-73
2021/11/17 04:09:32;;;;;;;;;;;;;;;5.35;88.61;100565.47;2791528;85;21067;-71
2021/11/17 04:13:51;;;;;;;35.33;25.05;;;;;;;5.35;88.33;100558.87;2821848;84;20444;-70
2021/11/17 04:18:04;;;;;;;40.05;27.37;;;;;;;5.21;88.02;100547.78;2822405;84;21003;-72
2021/11/17 04:22:41;;;;;;;36.93;26.50;;;;;;;5.14;88.45;100547.27;2823110;84;21012;-73
2021/11/17 04:27:17;;;;;;;39.30;27.52;;;;;;;5.10;88.59;100543.09;2823074;84;21031;-72
2021/11/17 04:31:50;;;;;;;36.28;26.33;;;;;;;5.14;88.72;100534.56;2823018;84;21059;-73
2021/11/17 04:36:00;;;;;;;44.50;28.70;;;;;;;5.20;89.03;100532.89;2822811;84;21453;-73
2021/11/17 04:40:32;;;;;;;33.70;25.08;;;;;;;5.29;88.75;100530.21;2822406;84;21063;-71
2021/11/17 04:45:00;;;;;;;39.98;26.27;;;;;;;5.32;88.38;100533.16;2822900;84;21039;-73
2021/11/17 04:49:33;;;;;;;41.23;28.92;;;;;;;5.31;88.64;100542.01;2822373;84;21063;-71
2021/11/17 04:54:25;;;;;;;43.08;29.02;;;;;;;5.22;88.49;100544.69;2822988;84;21051;-73
2021/11/17 04:58:52;;;;;;;42.73;32.58;;;;;;;5.06;88.47;100536.75;2823636;84;21330;-71
2021/11/17 05:03:24;;;;;;;49.20;29.42;;;;;;;4.96;88.02;100528.04;2823852;84;21044;-80
2021/11/17 05:07:43;;;;;;;50.80;33.30;;;;;;;4.93;88.12;100531.30;2827181;84;21012;-79
2021/11/17 05:12:16;;;;;;;71.07;33.48;;;;;;;4.92;87.58;100525.64;2751066;86;21118;-79
2021/11/17 05:16:29;;;;;;;54.85;29.90;;;;;;;4.75;88.34;100530.52;2829148;84;21022;-79
2021/11/17 05:20:58;;;;;;;74.20;32.60;;;;;;;4.61;90.27;100534.73;2824821;84;21016;-79
2021/11/17 05:25:20;;;;;;;42.50;26.45;;;;;;;4.52;91.76;100535.20;2834963;84;21054;-78
2021/11/17 05:30:13;;;;;;;54.95;29.20;;;;;;;4.42;93.43;100539.65;2834246;84;21102;-76
2021/11/17 05:34:25;;;;;;;49.85;26.10;;;;;;;4.38;94.55;100538.11;2834884;84;21031;-77
2021/11/17 05:38:44;;;;;;;48.42;26.82;;;;;;;4.45;96.12;100540.41;2834125;84;21039;-75
2021/11/17 05:43:24;;;;;;;56.90;25.77;;;;;;;4.52;97.30;100537.84;2835378;84;21091;-75
2021/11/17 05:47:49;;;;;;;70.80;26.65;;;;;;;4.57;97.46;100534.52;2835713;84;20980;-77
2021/11/17 05:52:35;;;;;;;50.88;26.02;;;;;;;4.64;96.92;100541.16;2834511;84;21063;-79
2021/11/17 05:57:06;;;;;;;38.40;22.10;;;;;;;4.67;96.32;100549.37;2827371;84;21062;-78
2021/11/17 06:01:31;;;;;;;32.58;19.48;;;;;;;4.66;96.08;100549.83;2836196;84;21066;-78
2021/11/17 06:05:32;;;;;;;26.00;19.23;;;;;;;4.69;95.06;100554.09;2836387;84;21249;-75
2021/11/17 06:09:33;;;;;;;36.48;21.82;;;;;;;4.73;94.30;100560.06;2827165;83;21075;-77
2021/11/17 06:13:35;;;;;;;34.85;20.95;;;;;;;4.73;94.01;100562.22;2824286;84;21067;-77
2021/11/17 06:17:37;;;;;;;34.63;18.92;;;;;;;4.79;93.83;100567.63;2823826;84;21043;-77
2021/11/17 06:21:43;;;;;;;31.57;20.40;;;;;;;4.80;93.38;100578.08;2823653;83;29704;-77
2021/11/17 06:25:44;;;;;;;35.40;21.77;;;;;;;4.87;93.09;100577.29;2823895;84;21027;-79
2021/11/17 06:29:49;;;;;;;28.05;18.05;;;;;;;4.91;92.75;100589.84;2823967;84;22114;-78
2021/11/17 06:33:51;;;;;;;35.35;20.90;;;;;;;4.90;91.87;100591.62;2805899;84;20998;-76
2021/11/17 06:37:56;;;;;;;30.95;20.00;;;;;;;4.91;92.19;100592.00;2823868;84;21015;-79
2021/11/17 06:42:00;;;;;;;24.52;17.77;;;;;;;4.99;92.19;100603.01;2823885;84;21082;-77
2021/11/17 06:46:02;;;;;;;28.32;19.50;;;;;;;4.95;91.33;100604.11;2824125;84;21119;-79
2021/11/17 06:50:06;;;;;;;29.63;19.20;;;;;;;5.02;91.13;100607.73;2824066;84;21008;-76
2021/11/17 06:54:08;;;;;;;30.37;19.23;;;;;;;5.04;91.36;100608.50;2845316;83;20975;-78
2021/11/17 06:58:10;;;;;;;22.48;16.15;;;;;;;5.04;91.48;100619.05;2840137;82;21012;-77
2021/11/17 07:02:11;;;;;;;23.18;17.05;;;;;;;5.05;91.68;100618.97;2821595;84;21036;-73
2021/11/17 07:06:13;;;;;;;27.77;15.90;;;;;;;5.10;91.85;100609.02;2800429;84;20952;-77
2021/11/17 07:10:16;;;;;;;30.45;20.20;;;;;;;5.15;91.80;100614.05;2800074;85;21051;-76
2021/11/17 07:14:22;;;;;;;28.87;18.20;;;;;;;5.23;91.87;100607.89;2800474;85;21310;-74
2021/11/17 07:18:22;;;;;;;45.83;29.60;;;;;;;5.27;92.46;100606.78;2800455;85;21027;-73
2021/11/17 07:22:24;;;;;;;35.30;25.97;;;;;;;5.45;92.58;100608.51;2800500;85;21035;-75
2021/11/17 07:26:27;;;;;;;32.28;19.65;;;;;;;5.74;92.77;100609.52;2800387;85;20987;-77
2021/11/17 07:30:34;;;;;;;24.75;17.35;;;;;;;5.92;91.53;100606.78;2800717;85;21034;-77
2021/11/17 07:34:35;;;;;;;26.02;19.48;;;;;;;;;;2798969;85;21075;-76
2021/11/17 07:38:38;;;;;;;33.65;22.05;;;;;;;6.05;91.19;100610.42;2800386;85;21027;-76
2021/11/17 07:42:41;;;;;;;54.70;40.98;;;;;;;6.19;90.58;100613.61;2800680;85;21055;-77
2021/11/17 07:46:45;;;;;;;77.03;42.27;;;;;;;6.42;91.02;100612.23;2800546;85;21075;-75
2021/11/17 07:50:48;;;;;;;82.60;48.17;;;;;;;6.39;89.98;100611.10;2800332;85;21027;-77
2021/11/17 07:54:50;;;;;;;148.45;79.75;;;;;;;6.31;90.61;100612.04;2800095;85;21007;-75
2021/11/17 07:58:52;;;;;;;96.28;53.35;;;;;;;6.32;91.27;100615.52;2800142;84;21624;-76
2021/11/17 08:02:54;;;;;;;37.23;26.20;;;;;;;6.28;92.43;100615.70;2799929;84;21055;-77
2021/11/17 08:06:56;;;;;;;34.10;24.65;;;;;;;6.39;91.95;100612.42;2799843;84;21058;-75
2021/11/17 08:11:01;;;;;;;41.25;27.22;;;;;;;6.59;91.44;100613.52;2782203;85;21030;-73
2021/11/17 08:15:04;;;;;;;38.90;28.42;;;;;;;6.80;92.29;100611.35;2808185;85;21003;-74
2021/11/17 08:19:06;;;;;;;110.30;65.20;;;;;;;7.10;92.08;100616.55;2807691;85;21423;-74
2021/11/17 08:23:08;;;;;;;105.47;70.92;;;;;;;7.39;90.58;100612.56;2807930;85;21021;-76
2021/11/17 08:27:18;;;;;;;110.17;67.20;;;;;;;7.61;90.24;100619.13;2807964;85;21274;-73
2021/11/17 08:31:19;;;;;;;140.82;83.50;;;;;;;7.73;89.67;100624.11;2808031;85;21015;-74
2021/11/17 08:35:25;;;;;;;139.57;85.50;;;;;;;7.89;90.03;100622.63;2808113;85;21034;-73
2021/11/17 08:39:29;;;;;;;72.15;47.60;;;;;;;8.07;90.32;100620.59;2808161;85;21054;-75
2021/11/17 08:43:32;;;;;;;55.25;38.42;;;;;;;8.20;89.17;100615.78;2808232;85;21043;-75
2021/11/17 08:47:33;;;;;;;47.23;32.30;;;;;;;8.30;89.91;100628.81;2807838;84;21082;-76
2021/11/17 08:51:35;;;;;;;49.20;34.33;;;;;;;8.29;90.09;100624.45;2808375;84;21038;-73
2021/11/17 08:55:42;;;;;;;57.05;36.55;;;;;;;8.37;90.67;100631.41;2808097;85;21082;-75
2021/11/17 08:59:48;;;;;;;130.07;83.07;;;;;;;8.44;90.55;100631.36;2809934;83;21082;-72
2021/11/17 09:03:49;;;;;;;153.55;100.62;;;;;;;8.54;90.89;100628.13;2842589;83;21075;-73
2021/11/17 09:07:51;;;;;;;208.45;125.82;;;;;;;8.68;91.48;100637.79;2841743;83;21040;-74
2021/11/17 09:11:53;;;;;;;102.05;66.57;;;;;;;8.93;91.34;100644.91;2834485;83;21063;-73
2021/11/17 09:15:57;;;;;;;53.83;34.33;;;;;;;9.12;89.31;100648.94;2834721;84;21102;-72
2021/11/17 09:19:59;;;;;;;41.37;32.03;;;;;;;9.23;88.42;100654.82;2834424;83;21316;-73
2021/11/17 09:24:07;;;;;;;35.88;26.45;;;;;;;9.43;87.87;100654.72;2834624;84;21039;-73
2021/11/17 09:28:09;;;;;;;37.30;28.83;;;;;;;9.53;87.24;100650.46;2834878;84;21000;-74
2021/11/17 09:32:12;;;;;;;33.45;25.20;;;;;;;9.63;87.49;100650.65;2834892;82;21015;-73
2021/11/17 09:36:20;;;;;;;42.60;31.05;;;;;;;9.78;87.42;100645.19;2834760;84;21055;-73
2021/11/17 09:40:28;;;;;;;41.98;31.07;;;;;;;9.82;87.86;100640.84;2834218;84;21043;-73
2021/11/17 09:44:35;;;;;;;37.67;28.27;;;;;;;9.97;87.49;100646.00;2834672;84;21094;-73
2021/11/17 09:48:42;;;;;;;41.90;31.87;;;;;;;9.99;87.56;100654.71;2834823;84;21087;-71
2021/11/17 09:52:49;;;;;;;42.03;29.27;;;;;;;10.03;86.16;100648.70;2833609;83;21074;-73
2021/11/17 09:57:02;;;;;;;36.33;26.75;;;;;;;10.06;86.72;100644.02;2834526;84;21061;-73
2021/11/17 10:01:26;;;;;;;42.45;30.48;;;;;;;10.11;86.10;100646.30;2832416;83;21043;-72
2021/11/17 10:14:27;;;;;;;42.80;30.20;;;;;;;10.27;84.55;100628.25;2842979;83;21004;-73
2021/11/17 10:18:46;;;;;;;40.90;27.62;;;;;;;10.31;85.46;100627.55;2838923;82;21059;-72
2021/11/17 10:22:53;;;;;;;88.75;59.42;;;;;;;10.35;86.13;100618.86;2842835;83;21064;-72
2021/11/17 10:27:02;;;;;;;89.77;57.08;;;;;;;10.33;86.89;100612.32;2839624;83;21051;-72
2021/11/17 10:31:23;;;;;;;54.60;38.95;;;;;;;10.26;88.08;100613.77;2842788;83;21015;-72
2021/11/17 10:35:30;;;;;;;68.00;46.98;;;;;;;10.17;87.69;100609.13;2842789;82;21035;-72
2021/11/17 10:39:43;;;;;;;55.08;37.58;;;;;;;9.95;86.54;100602.75;2842785;83;21071;-72
2021/11/17 10:43:54;;;;;;;56.90;39.63;;;;;;;9.99;87.10;100595.78;2842685;83;21075;-75
2021/11/17 10:47:56;;;;;;;65.87;49.80;;;;;;;9.99;86.36;100590.92;2842386;83;21047;-71
2021/11/17 10:52:05;;;;;;;53.10;39.85;;;;;;;10.04;85.00;100583.48;2816517;83;21047;-72
2021/11/17 10:56:12;;;;;;;47.98;32.40;;;;;;;10.05;84.03;100582.98;2842784;84;21016;-72
2021/11/17 11:00:19;;;;;;;53.65;38.67;;;;;;;10.24;84.16;100585.12;2842472;84;21050;-72
2021/11/17 11:04:26;;;;;;;49.13;34.58;;;;;;;10.41;82.71;100579.36;2840605;84;21087;-75
2021/11/17 11:08:46;;;;;;;56.98;42.50;;;;;;;10.63;82.32;100578.20;2836526;83;21058;-73
2021/11/17 11:12:50;;;;;;;61.95;41.68;;;;;;;10.87;82.99;100575.45;2836250;84;21485;-72
2021/11/17 11:17:10;;;;;;;51.30;38.33;;;;;;;11.00;81.43;100569.53;2842908;84;21101;-72
2021/11/17 11:21:17;;;;;;;48.83;36.50;;;;;;;11.20;81.24;100575.08;2841515;84;21433;-74
2021/11/17 11:25:49;;;;;;;62.10;41.30;;;;;;;11.32;80.44;100557.73;2842702;83;21035;-74
2021/11/17 11:30:08;;;;;;;48.23;32.95;;;;;;;11.44;80.74;100558.09;2842842;83;21019;-75
2021/11/17 11:34:35;;;;;;;43.48;30.72;;;;;;;11.61;78.83;100551.87;2833897;83;21035;-74
2021/11/17 11:38:38;;;;;;;;;;;;;;;11.70;77.13;100545.77;2845552;83;21039;-72
2021/11/17 11:43:02;;;;;;;44.27;31.48;;;;;;;11.81;78.06;100555.53;2842714;83;20182;-72
2021/11/17 11:47:12;;;;;;;40.08;29.77;;;;;;;11.84;75.64;100545.95;2842958;83;21027;-72
2021/11/17 11:51:53;;;;;;;45.60;30.80;;;;;;;11.76;75.10;100561.74;2843228;83;21123;-72
2021/11/17 11:56:04;;;;;;;41.90;30.48;;;;;;;11.70;75.84;100558.62;2843351;82;21050;-72
2021/11/17 12:00:33;;;;;;;47.90;32.15;;;;;;;11.57;76.39;100556.09;2843669;83;20999;-72
2021/11/17 12:04:42;;;;;;;45.25;31.20;;;;;;;11.52;76.34;100552.14;2843767;83;21010;-72
2021/11/17 12:08:50;;;;;;;40.88;27.60;;;;;;;11.56;77.14;100551.73;2843273;82;21074;-72
2021/11/17 12:12:52;;;;;;;49.60;32.80;;;;;;;11.50;77.04;100554.08;2837991;83;21051;-76
2021/11/17 12:16:56;;;;;;;49.67;34.95;;;;;;;11.47;76.60;100553.83;2843294;83;21095;-72
2021/11/17 12:21:08;;;;;;;49.35;36.45;;;;;;;11.43;76.67;100554.56;2843490;83;21075;-72
2021/11/17 12:25:30;;;;;;;52.20;33.05;;;;;;;11.37;76.18;100555.06;2842963;83;21067;-71
2021/11/17 12:29:58;;;;;;;53.63;34.73;;;;;;;11.34;75.41;100549.13;2843142;83;21034;-73
2021/11/17 12:34:11;;;;;;;52.38;33.65;;;;;;;11.38;76.50;100539.91;2843784;82;21027;-71
2021/11/17 12:38:21;;;;;;;47.85;33.08;;;;;;;11.37;76.19;100548.41;2841075;83;21023;-72
2021/11/17 12:42:39;;;;;;;40.65;30.57;;;;;;;11.39;75.59;100558.92;2842206;83;20980;-72
2021/11/17 12:46:52;;;;;;;43.55;34.63;;;;;;;11.46;76.38;100555.28;2843162;82;21055;-74
2021/11/17 12:51:10;;;;;;;40.63;28.95;;;;;;;11.43;76.65;100553.73;2837612;83;21085;-73
2021/11/17 12:55:20;;;;;;;40.08;28.80;;;;;;;11.37;77.24;100554.20;2843422;83;21031;-72
2021/11/17 12:59:36;;;;;;;39.67;29.42;;;;;;;11.30;77.37;100547.23;2843235;83;21249;-74
2021/11/17 13:03:52;;;;;;;42.80;26.05;;;;;;;11.22;78.28;100554.97;2843401;83;21027;-76
2021/11/17 13:08:07;;;;;;;43.08;27.90;;;;;;;10.88;74.15;100553.66;2843322;83;21035;-73
2021/11/17 13:12:27;;;;;;;32.30;25.00;;;;;;;10.67;74.79;100553.05;2843295;83;21052;-73
2021/11/17 13:16:43;;;;;;;43.45;26.93;;;;;;;10.50;76.26;100550.38;2843453;83;21003;-73
2021/11/17 13:20:47;;;;;;;37.73;25.17;;;;;;;10.36;77.25;100552.25;2843594;83;21043;-72
2021/11/17 13:24:53;;;;;;;47.65;29.52;;;;;;;10.30;77.78;100556.72;2798622;82;21011;-72
2021/11/17 13:28:55;;;;;;;;;;;;;;;10.26;77.55;100563.25;2796690;84;20996;-73
2021/11/17 13:32:58;;;;;;;41.68;28.27;;;;;;;10.23;78.15;100564.81;2794382;84;20095;-73
2021/11/17 13:37:39;;;;;;;39.58;27.62;;;;;;;10.14;77.85;100561.04;2794170;84;21071;-72
2021/11/17 13:41:46;;;;;;;35.85;24.00;;;;;;;10.04;77.76;100560.89;2793829;80;21055;-72
2021/11/17 13:45:53;;;;;;;40.65;28.95;;;;;;;9.92;77.77;100558.64;2794403;85;21055;-75
2021/11/17 13:49:58;;;;;;;40.55;29.45;;;;;;;9.91;78.03;100561.44;2794331;82;21071;-73
2021/11/17 13:53:59;;;;;;;35.95;24.60;;;;;;;9.84;78.37;100551.27;2794539;85;21027;-75
2021/11/17 13:58:04;;;;;;;38.45;25.65;;;;;;;9.82;77.97;100554.50;2794462;82;21289;-71
2021/11/17 14:02:08;;;;;;;53.92;28.17;;;;;;;9.79;77.79;100548.09;2769186;85;21079;-71
2021/11/17 14:06:15;;;;;;;45.98;30.02;;;;;;;9.82;78.28;100556.33;2801839;85;21047;-71
2021/11/17 14:10:19;;;;;;;38.05;28.00;;;;;;;9.88;78.79;100557.69;2798980;84;21097;-72
2021/11/17 14:14:21;;;;;;;39.48;26.97;;;;;;;9.93;78.72;100555.52;2822379;84;21085;-71
2021/11/17 14:18:24;;;;;;;45.33;31.45;;;;;;;9.88;79.06;100553.70;2822749;84;21023;-71
2021/11/17 14:22:26;;;;;;;46.65;29.50;;;;;;;9.99;79.25;100560.36;2823358;83;21026;-72
2021/11/17 14:26:28;;;;;;;41.85;28.75;;;;;;;10.06;79.36;100560.28;2822976;84;20987;-69
2021/11/17 14:30:49;;;;;;;46.08;30.88;;;;;;;10.10;77.98;100568.39;2823442;84;21066;-69
2021/11/17 14:34:51;;;;;;;41.63;29.32;;;;;;;10.00;77.50;100568.70;2823282;84;21546;-70
2021/11/17 14:38:55;;;;;;;57.03;34.30;;;;;;;9.97;77.37;100568.47;2823822;84;21086;-71
2021/11/17 14:42:57;;;;;;;58.10;35.40;;;;;;;9.66;78.96;100576.05;2844211;83;21053;-70
2021/11/17 14:46:59;;;;;;;62.48;39.45;;;;;;;9.69;79.25;100586.44;2774585;84;21042;-70
2021/11/17 14:51:02;;;;;;;60.83;40.48;;;;;;;9.64;80.05;100588.59;2823818;84;21094;-70
2021/11/17 14:55:10;;;;;;;58.13;40.08;;;;;;;9.56;80.62;100585.17;2843512;83;20993;-70
2021/11/17 14:59:11;;;;;;;64.92;40.58;;;;;;;9.51;80.87;100585.99;2844258;83;21099;-70
2021/11/17 15:03:13;;;;;;;51.88;36.80;;;;;;;9.47;81.03;100595.61;2844372;83;20993;-70
2021/11/17 15:07:15;;;;;;;57.00;39.70;;;;;;;9.38;81.16;100599.78;2844487;83;20989;-70
2021/11/17 15:11:18;;;;;;;72.37;46.48;;;;;;;9.39;81.36;100603.66;2806844;83;21018;-70
2021/11/17 15:15:29;;;;;;;87.70;51.88;;;;;;;9.43;81.38;100598.95;2794488;85;21033;-70
2021/11/17 15:19:31;;;;;;;76.33;47.15;;;;;;;9.43;81.42;100590.99;2794311;85;21044;-70
2021/11/17 15:23:33;;;;;;;57.70;41.33;;;;;;;9.36;81.79;100592.41;2794401;85;21025;-70
2021/11/17 15:27:47;;;;;;;53.05;40.85;;;;;;;9.34;81.87;100604.95;2794395;85;21040;-71
2021/11/17 15:31:49;;;;;;;62.53;39.20;;;;;;;9.42;81.98;100595.47;2748608;86;21029;-70
2021/11/17 15:35:51;;;;;;;63.78;42.27;;;;;;;9.44;81.89;100598.03;2748112;86;21409;-70
2021/11/17 15:39:53;;;;;;;69.27;47.30;;;;;;;9.37;81.93;100599.41;2762896;85;21015;-70
2021/11/17 15:43:56;;;;;;;63.55;43.65;;;;;;;9.32;82.09;100597.58;2775302;85;21041;-70
2021/11/17 15:47:58;;;;;;;63.48;43.05;;;;;;;9.15;82.96;100598.30;2767565;85;21094;-70
2021/11/17 15:52:00;;;;;;;69.47;46.45;;;;;;;9.02;83.83;100601.44;2767620;86;21053;-70
2021/11/17 15:56:04;;;;;;;67.85;44.90;;;;;;;9.05;83.96;100594.61;2767560;85;21057;-70
2021/11/17 16:00:10;;;;;;;66.55;41.98;;;;;;;8.93;84.21;100599.81;2787143;84;21028;-70
2021/11/17 16:04:11;;;;;;;66.82;44.35;;;;;;;8.90;84.75;100601.36;2812228;84;21037;-69
2021/11/17 16:08:15;;;;;;;61.70;41.85;;;;;;;8.98;84.52;100608.78;2812148;84;21066;-70
2021/11/17 16:12:19;;;;;;;69.72;46.35;;;;;;;8.96;84.76;100606.72;2791990;84;21055;-74
2021/11/17 16:16:25;;;;;;;71.50;47.00;;;;;;;8.99;84.62;100602.02;2756722;85;21031;-72
2021/11/17 16:20:34;;;;;;;73.28;45.58;;;;;;;8.86;85.24;100602.53;2756195;86;21142;-72
2021/11/17 16:28:57;;;;;;;61.33;42.88;;;;;;;8.62;86.43;100603.74;2756853;86;21080;-73
2021/11/17 16:32:59;;;;;;;68.05;44.50;;;;;;;8.59;87.05;100607.45;2756730;86;21031;-72
2021/11/17 16:37:02;;;;;;;65.37;41.40;;;;;;;8.56;87.26;100622.24;2756345;86;21079;-72
2021/11/17 16:41:05;;;;;;;63.55;41.02;;;;;;;8.44;87.94;100625.22;2756677;86;21257;-74
2021/11/17 16:45:10;;;;;;;71.30;43.78;;;;;;;8.38;87.59;100626.48;2756453;86;21102;-73
2021/11/17 16:49:17;;;;;;;71.40;46.25;;;;;;;8.46;88.12;100630.44;2757136;85;21074;-74
2021/11/17 16:53:20;;;;;;;75.50;42.65;;;;;;;8.53;87.77;100626.44;2757018;86;21027;-74
2021/11/17 16:57:25;;;;;;;65.70;44.77;;;;;;;8.63;87.32;100632.79;2756809;86;21070;-74
2021/11/17 17:01:27;;;;;;;66.45;41.60;;;;;;;8.73;87.07;100637.48;2756730;86;20999;-73
2021/11/17 17:05:29;;;;;;;59.08;39.00;;;;;;;8.78;86.53;100641.98;2756784;86;21061;-73
2021/11/17 17:09:31;;;;;;;66.00;42.38;;;;;;;8.79;86.64;100639.70;2756802;86;21018;-74
2021/11/17 17:13:34;;;;;;;59.63;39.95;;;;;;;8.81;86.37;100652.38;2714132;87;20984;-75
2021/11/17 17:17:37;;;;;;;53.13;34.00;;;;;;;8.81;85.97;100643.09;2713871;87;21035;-75
2021/11/17 17:21:39;;;;;;;51.95;35.10;;;;;;;8.72;85.82;100641.92;2713647;87;21003;-75
2021/11/17 17:25:45;;;;;;;52.35;33.58;;;;;;;8.66;86.21;100647.20;2713501;87;21042;-76
2021/11/17 17:29:46;;;;;;;22.22;16.57;;;;;;;8.62;86.77;100649.66;2713818;87;21123;-74
2021/11/17 17:33:51;;;;;;;25.40;18.23;;;;;;;8.37;85.51;100643.83;2713622;87;21567;-75
2021/11/17 17:37:53;;;;;;;21.68;17.80;;;;;;;8.29;86.37;100646.50;2713483;87;21038;-74
2021/11/17 17:41:56;;;;;;;25.72;16.48;;;;;;;8.18;87.05;100646.38;2713622;87;21031;-73
2021/11/17 17:45:59;;;;;;;28.45;18.80;;;;;;;8.18;87.01;100653.00;2713801;87;21023;-72
2021/11/17 17:50:01;;;;;;;24.02;17.50;;;;;;;8.10;87.18;100648.20;2713627;87;21045;-72
2021/11/17 17:54:02;;;;;;;25.97;18.42;;;;;;;8.10;87.87;100660.13;2714028;87;21066;-73
2021/11/17 17:58:05;;;;;;;21.60;16.42;;;;;;;8.13;88.07;100659.92;2713882;87;21039;-72
2021/11/17 18:02:13;;;;;;;22.87;17.05;;;;;;;8.08;88.01;100658.05;2714084;87;21044;-74
2021/11/17 18:06:17;;;;;;;22.67;14.60;;;;;;;8.04;88.20;100676.41;2714215;87;21066;-72
2021/11/17 18:10:23;;;;;;;27.62;16.95;;;;;;;8.10;88.21;100670.73;2719589;86;21012;-72
2021/11/17 18:14:25;;;;;;;23.57;14.68;;;;;;;8.14;88.18;100682.81;2756732;86;21087;-74
2021/11/17 18:18:30;;;;;;;24.95;17.27;;;;;;;8.18;87.85;100681.28;2756841;86;21012;-72
2021/11/17 18:22:32;;;;;;;22.75;16.67;;;;;;;8.23;87.81;100687.99;2756537;86;21389;-75
2021/11/17 18:26:40;;;;;;;21.52;16.30;;;;;;;8.29;87.44;100678.30;2756349;86;21019;-76
2021/11/17 18:30:45;;;;;;;19.92;14.10;;;;;;;8.34;87.34;100689.94;2756510;86;21023;-74
2021/11/17 18:34:47;;;;;;;21.68;15.38;;;;;;;8.40;87.47;100683.38;2756122;86;21062;-74
2021/11/17 18:38:50;;;;;;;18.35;14.38;;;;;;;8.41;87.06;100683.75;2721887;85;21018;-74
2021/11/17 18:42:55;;;;;;;20.48;14.35;;;;;;;8.38;86.63;100669.38;2739395;78;21011;-68
2021/11/17 18:47:06;;;;;;;26.85;15.68;;;;;;;8.35;86.62;100668.23;2922713;80;21003;-69
2021/11/17 18:51:22;;;;;;;22.93;16.37;;;;;;;8.37;86.37;100679.61;2925499;80;21046;-68
2021/11/17 18:55:29;;;;;;;23.27;17.63;;;;;;;8.38;86.51;100679.50;2929163;80;21059;-69
2021/11/17 18:59:38;;;;;;;19.65;14.83;;;;;;;8.38;86.51;100679.50;2929467;81;21700;-70
2021/11/17 19:03:46;;;;;;;;;;;;;;;8.36;86.78;100679.24;2936515;81;21570;-69
2021/11/17 19:07:55;;;;;;;19.67;15.00;;;;;;;8.31;86.30;100670.27;2933668;81;20146;-69
2021/11/17 19:11:57;;;;;;;22.87;15.63;;;;;;;8.25;85.91;100666.67;2934088;81;21033;-70
2021/11/17 19:16:03;;;;;;;19.77;13.80;;;;;;;8.21;85.61;100682.41;2933374;80;21053;-69
2021/11/17 19:20:14;;;;;;;21.60;15.38;;;;;;;8.15;86.36;100691.60;2930318;81;21125;-69
2021/11/17 19:24:23;;;;;;;21.05;16.17;;;;;;;8.14;86.33;100689.44;2933965;80;21140;-70
2021/11/17 19:28:30;;;;;;;18.00;14.23;;;;;;;8.18;86.53;100706.46;2933980;81;21030;-69
2021/11/17 19:32:37;;;;;;;24.70;16.95;;;;;;;8.16;86.76;100710.55;2933859;81;21041;-69
2021/11/17 19:36:54;;;;;;;21.48;15.45;;;;;;;8.18;86.51;100702.48;2934271;81;21026;-68
2021/11/17 19:41:04;;;;;;;23.67;15.43;;;;;;;8.18;85.65;100705.14;2932573;80;21068;-69
2021/11/17 19:45:12;;;;;;;20.60;14.30;;;;;;;8.12;84.80;100703.73;2966311;78;21065;-69
2021/11/17 19:49:18;;;;;;;17.35;12.58;;;;;;;8.00;84.42;100715.97;2987651;79;21073;-69
2021/11/17 19:53:22;;;;;;;22.65;14.70;;;;;;;7.77;84.31;100729.38;2987855;79;21065;-68
2021/11/17 19:57:25;;;;;;;21.40;15.58;;;;;;;7.59;84.72;100737.52;2988004;79;21045;-69
2021/11/17 20:01:29;;;;;;;26.35;19.15;;;;;;;7.42;85.27;100739.88;2987884;79;21016;-69
2021/11/17 20:05:32;;;;;;;21.97;16.35;;;;;;;7.29;86.78;100735.34;2988088;79;21105;-69
2021/11/17 20:09:37;;;;;;;22.15;15.88;;;;;;;7.26;88.25;100744.77;2987786;79;21031;-69
2021/11/17 20:13:45;;;;;;;27.00;19.77;;;;;;;7.33;88.76;100747.06;2987687;79;21047;-69
2021/11/17 20:17:54;;;;;;;28.60;16.93;;;;;;;7.41;89.20;100753.59;2987100;79;21019;-69
2021/11/17 20:21:58;;;;;;;23.35;17.62;;;;;;;7.51;89.70;100770.22;2988102;79;21043;-69
2021/11/17 20:26:04;;;;;;;27.48;18.30;;;;;;;7.56;89.75;100776.08;2988074;79;21039;-69
2021/11/17 20:30:25;;;;;;;31.82;19.45;;;;;;;7.59;89.83;100782.53;2987986;79;21075;-69
2021/11/17 20:34:29;;;;;;;23.15;18.62;;;;;;;7.64;89.83;100787.52;2976985;78;21034;-69
2021/11/17 20:38:31;;;;;;;32.40;20.77;;;;;;;7.69;89.45;100793.41;2989459;79;21666;-69
2021/11/17 20:42:33;;;;;;;26.90;17.62;;;;;;;7.73;89.21;100800.21;2988903;79;21018;-70
2021/11/17 20:46:35;;;;;;;28.27;18.45;;;;;;;7.76;89.25;100800.02;2988838;79;21042;-70
2021/11/17 20:50:37;;;;;;;28.52;17.30;;;;;;;7.75;88.48;100800.97;2988735;79;20962;-70
2021/11/17 20:54:40;;;;;;;24.52;17.23;;;;;;;7.85;88.32;100802.08;2988759;79;21411;-71
2021/11/17 20:58:43;;;;;;;21.80;17.70;;;;;;;7.94;88.16;100811.25;2988446;79;21034;-71
2021/11/17 21:02:46;;;;;;;20.52;15.48;;;;;;;7.90;87.89;100799.64;2988624;79;20975;-70
2021/11/17 21:06:47;;;;;;;24.63;16.37;;;;;;;7.91;88.61;100810.13;2988903;79;21053;-71
2021/11/17 21:10:54;;;;;;;22.93;15.10;;;;;;;7.82;89.85;100804.92;2988643;79;21030;-70
2021/11/17 21:14:56;;;;;;;19.70;16.23;;;;;;;;;;2988967;79;21025;-70
2021/11/17 21:18:58;;;;;;;27.40;17.77;;;;;;;7.66;90.70;100797.55;2989125;79;21025;-70
2021/11/17 21:23:00;;;;;;;26.02;18.15;;;;;;;7.73;91.24;100804.19;2988929;79;20986;-70
2021/11/17 21:27:04;;;;;;;22.80;17.42;;;;;;;7.72;91.97;100802.48;2989101;79;20986;-70
2021/11/17 21:31:07;;;;;;;25.72;17.73;;;;;;;7.76;92.06;100803.98;2988945;79;21019;-74
2021/11/17 21:35:10;;;;;;;28.87;18.67;;;;;;;7.83;91.70;100804.47;2988929;79;21006;-71
2021/11/17 21:39:13;;;;;;;23.50;16.75;;;;;;;7.89;91.80;100797.45;2988986;79;21018;-77
2021/11/17 21:43:15;;;;;;;27.00;17.98;;;;;;;7.96;91.52;100796.59;2988918;79;21070;-77
2021/11/17 21:47:17;;;;;;;30.17;18.80;;;;;;;8.02;91.51;100800.18;2956225;79;21283;-75